Terminal Aerodrome Forecast
Issued by NWS Newport/Morehead City, NC

Home | Current Version | Previous Version | Text Only | Print | Product List | Glossary On
Versions: 1 2 3 4 5 6 7 8 9 10 11 12 13 14 15 16 17
000
FTUS42 KMHX 311734
TAFEWN
TAF
KEWN 311734Z 3118/0118 VRB06KT P6SM SCT050
     FM010600 00000KT 6SM BR FEW007 SCT015
     FM011200 22005KT P6SM SCT035=

USA.gov is the U.S. government's official web portal to all federal, state and local government web resources and services.